Time;durP1;ratioP1;P1;durP2;ratioP2;P2;SDS_P1;SDS_P2;PMS_P1;PMS_P2;Temp;Humidity;BMP_temperature;BMP_pressure;BME280_temperature;BME280_humidity;BME280_pressure;Samples;Min_cycle;Max_cycle;Signal;HPM_P1;HPM_P2
2023/12/04 00:00:32;;;;;;;5.68;3.70;;;3.60;91.00;;;;;;4968842;28;20226;-45
2023/12/04 00:03:00;;;;;;;7.47;3.55;;;3.70;91.00;;;;;;4965624;28;20200;-45
2023/12/04 00:05:28;;;;;;;5.68;4.30;;;3.70;91.00;;;;;;4966748;28;20215;-44
2023/12/04 00:07:57;;;;;;;4.05;3.58;;;3.70;91.00;;;;;;4960186;28;20219;-46
2023/12/04 00:10:27;;;;;;;7.78;4.75;;;3.70;91.00;;;;;;4962700;28;20636;-45
2023/12/04 00:12:55;;;;;;;7.95;4.72;;;3.70;91.00;;;;;;4966167;28;20195;-43
2023/12/04 00:15:23;;;;;;;5.40;4.15;;;3.70;91.40;;;;;;4978783;28;20230;-50
2023/12/04 00:17:52;;;;;;;5.55;4.05;;;3.70;91.00;;;;;;4970903;28;20219;-46
2023/12/04 00:20:20;;;;;;;5.32;4.20;;;3.60;90.80;;;;;;4962863;28;20227;-45
2023/12/04 00:22:48;;;;;;;5.53;4.30;;;3.60;90.90;;;;;;4963423;28;20370;-46
2023/12/04 00:25:16;;;;;;;6.45;4.18;;;3.70;91.00;;;;;;4963931;28;20231;-45
2023/12/04 00:27:45;;;;;;;4.82;3.30;;;3.60;91.00;;;;;;4961248;28;20215;-46
2023/12/04 00:30:13;;;;;;;7.18;4.78;;;3.60;91.00;;;;;;4969950;28;20219;-45
2023/12/04 00:32:41;;;;;;;5.70;3.55;;;3.60;91.00;;;;;;4967022;28;20416;-45
2023/12/04 00:35:09;;;;;;;10.75;5.05;;;3.60;91.00;;;;;;4961814;28;20219;-44
2023/12/04 00:37:38;;;;;;;8.45;4.75;;;3.60;91.00;;;;;;4969568;28;20235;-43
2023/12/04 00:40:08;;;;;;;4.80;4.10;;;3.60;91.00;;;;;;4963646;28;20306;-45
2023/12/04 00:42:36;;;;;;;6.78;4.18;;;3.60;91.00;;;;;;4954911;28;20219;-44
2023/12/04 00:45:06;;;;;;;5.25;3.67;;;3.60;91.00;;;;;;4959792;28;20211;-44
2023/12/04 00:47:34;;;;;;;5.07;3.70;;;3.60;91.00;;;;;;4968913;28;20219;-44
2023/12/04 00:50:03;;;;;;;6.20;4.28;;;3.60;91.00;;;;;;4960277;28;20243;-44
2023/12/04 00:52:31;;;;;;;5.25;3.80;;;3.70;91.00;;;;;;4961711;28;20233;-46
2023/12/04 00:54:59;;;;;;;5.15;3.67;;;3.60;91.00;;;;;;4970166;28;20219;-46
2023/12/04 00:57:27;;;;;;;7.05;3.95;;;3.60;91.00;;;;;;4957675;28;20208;-44
2023/12/04 00:59:55;;;;;;;6.28;4.55;;;3.60;91.00;;;;;;4965180;28;20212;-45
2023/12/04 01:02:24;;;;;;;6.35;4.07;;;3.70;91.00;;;;;;4980351;28;20452;-46
2023/12/04 01:04:53;;;;;;;7.15;4.38;;;3.60;91.00;;;;;;4963438;28;20286;-45
2023/12/04 01:07:21;;;;;;;7.13;4.55;;;3.60;91.00;;;;;;4964299;28;20196;-44
2023/12/04 01:09:49;;;;;;;6.10;4.28;;;3.60;91.00;;;;;;4962490;28;20259;-45
2023/12/04 01:12:17;;;;;;;6.72;4.50;;;3.60;91.00;;;;;;4961617;28;20246;-45
2023/12/04 01:14:45;;;;;;;8.82;3.60;;;3.60;91.00;;;;;;4962528;28;20223;-45
2023/12/04 01:17:13;;;;;;;6.22;4.22;;;3.60;90.90;;;;;;4964048;28;20508;-45
2023/12/04 01:19:42;;;;;;;5.95;3.38;;;3.60;91.00;;;;;;4966616;28;20309;-46
2023/12/04 01:22:10;;;;;;;5.20;3.40;;;3.60;91.10;;;;;;4959264;28;20223;-45
2023/12/04 01:24:38;;;;;;;7.00;4.68;;;3.60;91.00;;;;;;4953621;28;20269;-47
2023/12/04 01:27:06;;;;;;;6.20;4.70;;;3.70;91.00;;;;;;4961650;28;20258;-46
2023/12/04 01:29:34;;;;;;;6.40;4.20;;;3.60;91.00;;;;;;4967777;28;20230;-45
2023/12/04 01:32:03;;;;;;;5.28;4.10;;;3.60;91.00;;;;;;4969608;28;20569;-45
2023/12/04 01:34:31;;;;;;;6.45;4.18;;;3.60;91.00;;;;;;4983682;28;20227;-46
2023/12/04 01:37:00;;;;;;;4.90;3.22;;;3.60;91.00;;;;;;4966978;28;20303;-45
2023/12/04 01:39:28;;;;;;;8.23;5.53;;;3.70;91.00;;;;;;4971274;28;20230;-45
2023/12/04 01:41:57;;;;;;;7.10;4.40;;;3.60;90.90;;;;;;4966614;28;20198;-45
2023/12/04 01:44:25;;;;;;;6.05;4.53;;;3.60;90.80;;;;;;4966870;28;20227;-49
2023/12/04 01:46:53;;;;;;;5.65;4.03;;;3.60;90.80;;;;;;4973994;28;20204;-47
2023/12/04 01:49:21;;;;;;;6.60;4.15;;;3.60;90.80;;;;;;4972514;28;20306;-47
2023/12/04 01:51:50;;;;;;;5.38;3.83;;;3.60;90.70;;;;;;4965835;28;20200;-46
2023/12/04 01:54:20;;;;;;;5.57;4.05;;;3.60;90.70;;;;;;4965030;28;20602;-46
2023/12/04 01:56:48;;;;;;;6.50;4.13;;;3.60;90.60;;;;;;4967551;28;20199;-47
2023/12/04 01:59:17;;;;;;;4.45;3.47;;;3.60;90.70;;;;;;4972147;28;20269;-49
2023/12/04 02:01:45;;;;;;;7.05;4.30;;;3.60;90.60;;;;;;4966312;28;20278;-46
2023/12/04 02:04:13;;;;;;;5.20;4.05;;;3.60;90.60;;;;;;4971194;28;20219;-45
2023/12/04 02:06:42;;;;;;;7.07;5.05;;;3.60;90.50;;;;;;4971854;28;20203;-48
2023/12/04 02:09:12;;;;;;;4.88;3.55;;;3.60;90.50;;;;;;4968154;28;20223;-50
2023/12/04 02:11:41;;;;;;;6.65;4.85;;;3.60;90.40;;;;;;4965838;28;20203;-47
2023/12/04 02:14:09;;;;;;;4.47;3.58;;;3.60;90.40;;;;;;4965043;28;20463;-48
2023/12/04 02:16:41;;;;;;;6.43;4.20;;;3.60;90.60;;;;;;4972579;28;20227;-46
2023/12/04 02:19:12;;;;;;;7.95;4.70;;;3.60;90.70;;;;;;4972505;28;20279;-46
2023/12/04 02:21:40;;;;;;;5.25;3.90;;;3.60;90.40;;;;;;4966967;28;20298;-46
2023/12/04 02:24:10;;;;;;;6.32;4.88;;;3.60;90.50;;;;;;4968928;28;20293;-47
2023/12/04 02:26:45;;;;;;;5.13;3.78;;;3.60;90.20;;;;;;4967835;28;20522;-46
2023/12/04 02:29:19;;;;;;;4.40;3.60;;;3.60;90.50;;;;;;4966378;28;20784;-47
2023/12/04 02:31:52;;;;;;;5.90;4.03;;;3.60;90.40;;;;;;4971447;28;20199;-45
2023/12/04 02:34:21;;;;;;;5.20;3.55;;;3.60;90.50;;;;;;4970135;28;20207;-47
2023/12/04 02:36:51;;;;;;;5.43;3.92;;;3.60;90.40;;;;;;4970181;28;20589;-46
2023/12/04 02:39:21;;;;;;;5.63;3.90;;;3.60;90.30;;;;;;4970989;28;20550;-46
2023/12/04 02:41:50;;;;;;;5.15;3.60;;;3.60;90.40;;;;;;4962112;28;20188;-45
2023/12/04 02:44:18;;;;;;;6.57;3.92;;;3.60;90.40;;;;;;4968556;28;20223;-46
2023/12/04 02:46:46;;;;;;;5.38;3.67;;;3.60;90.50;;;;;;4968086;28;20216;-46
2023/12/04 02:49:14;;;;;;;5.50;3.88;;;3.60;90.60;;;;;;4964502;28;20223;-46
2023/12/04 02:51:45;;;;;;;5.40;3.90;;;3.60;90.50;;;;;;4967426;28;20208;-46
2023/12/04 02:54:13;;;;;;;3.85;3.15;;;3.60;90.50;;;;;;4966007;28;20322;-45
2023/12/04 02:56:42;;;;;;;3.53;2.88;;;3.60;90.50;;;;;;4965678;28;20210;-47
2023/12/04 02:59:10;;;;;;;5.72;4.50;;;3.60;90.40;;;;;;4970478;28;20310;-48
2023/12/04 03:01:38;;;;;;;5.32;4.35;;;3.60;90.20;;;;;;4986288;28;20254;-48
2023/12/04 03:04:06;;;;;;;5.28;3.90;;;3.60;90.20;;;;;;4965941;28;20705;-46
2023/12/04 03:06:34;;;;;;;5.68;3.78;;;3.60;90.30;;;;;;4966514;28;20215;-48
2023/12/04 03:09:04;;;;;;;7.15;3.75;;;3.60;90.30;;;;;;4963127;28;20226;-48
2023/12/04 03:11:32;;;;;;;5.00;3.60;;;3.60;90.40;;;;;;4964022;28;20187;-45
2023/12/04 03:14:02;;;;;;;4.80;3.33;;;3.60;90.30;;;;;;4967123;28;20705;-46
2023/12/04 03:16:30;;;;;;;5.50;3.83;;;3.60;90.30;;;;;;4966216;28;20717;-46
2023/12/04 03:18:58;;;;;;;5.00;3.47;;;3.60;90.30;;;;;;4962156;28;20231;-45
2023/12/04 03:21:28;;;;;;;7.15;4.72;;;3.60;90.30;;;;;;4968308;28;20194;-46
2023/12/04 03:23:56;;;;;;;5.90;3.85;;;3.60;90.10;;;;;;4966107;28;20224;-48
2023/12/04 03:26:24;;;;;;;4.38;3.25;;;3.60;90.00;;;;;;4959501;28;20219;-45
2023/12/04 03:28:52;;;;;;;6.00;3.55;;;3.60;90.30;;;;;;4964048;28;20218;-46
2023/12/04 03:31:22;;;;;;;4.78;3.20;;;3.60;90.20;;;;;;4958229;28;20547;-46
2023/12/04 03:33:50;;;;;;;4.05;3.35;;;3.60;90.20;;;;;;4959265;28;20219;-47
2023/12/04 03:36:18;;;;;;;4.22;3.35;;;3.60;90.00;;;;;;4963462;28;20562;-46
2023/12/04 03:38:46;;;;;;;3.92;3.38;;;3.60;90.20;;;;;;4971052;28;20484;-45
2023/12/04 03:41:15;;;;;;;5.75;3.90;;;3.60;90.10;;;;;;4967273;28;20199;-46
2023/12/04 03:43:43;;;;;;;4.20;3.30;;;3.60;90.20;;;;;;4962765;28;20314;-47
2023/12/04 03:46:11;;;;;;;5.50;3.53;;;3.60;90.10;;;;;;4971646;28;20379;-48
2023/12/04 03:48:41;;;;;;;4.47;3.30;;;3.60;90.10;;;;;;4963270;28;20273;-47
2023/12/04 03:51:09;;;;;;;4.75;3.38;;;3.60;90.20;;;;;;4961592;28;20219;-46
2023/12/04 03:53:37;;;;;;;4.78;3.00;;;3.60;90.30;;;;;;4964389;28;20212;-45
2023/12/04 03:56:06;;;;;;;5.47;3.85;;;3.60;90.30;;;;;;4969439;28;20298;-46
2023/12/04 03:58:34;;;;;;;3.85;3.00;;;3.60;90.30;;;;;;4963658;28;20230;-45
2023/12/04 04:01:02;;;;;;;4.78;3.38;;;3.70;90.30;;;;;;4960254;28;20200;-46
2023/12/04 04:03:30;;;;;;;4.88;3.35;;;3.60;90.40;;;;;;4964187;28;20285;-46
2023/12/04 04:06:00;;;;;;;5.00;3.30;;;3.60;90.30;;;;;;4968674;28;20574;-45
2023/12/04 04:08:28;;;;;;;4.80;3.30;;;3.70;90.10;;;;;;4970306;28;20306;-46
2023/12/04 04:10:56;;;;;;;4.38;3.28;;;3.60;90.40;;;;;;4959393;28;20736;-47
2023/12/04 04:13:24;;;;;;;5.75;2.70;;;3.60;90.20;;;;;;4962722;28;20197;-48
2023/12/04 04:15:52;;;;;;;4.47;2.72;;;3.60;90.10;;;;;;4970264;28;20198;-46
2023/12/04 04:18:20;;;;;;;4.25;3.17;;;3.60;90.20;;;;;;4963653;28;20211;-47
2023/12/04 04:20:48;;;;;;;4.13;3.00;;;3.70;90.10;;;;;;4960473;28;20701;-49
2023/12/04 04:23:17;;;;;;;3.72;2.85;;;3.70;90.10;;;;;;4966276;28;20708;-47
2023/12/04 04:25:45;;;;;;;5.32;3.10;;;3.60;89.90;;;;;;4960412;28;20222;-47
2023/12/04 04:28:13;;;;;;;4.25;3.35;;;3.60;89.10;;;;;;4957913;28;20303;-47
2023/12/04 04:30:41;;;;;;;4.70;3.05;;;3.60;89.90;;;;;;4962585;28;20234;-50
2023/12/04 04:33:11;;;;;;;6.63;3.28;;;3.60;90.30;;;;;;4970535;28;20196;-45
2023/12/04 04:35:39;;;;;;;3.20;2.53;;;3.60;89.70;;;;;;4955078;28;20219;-47
2023/12/04 04:38:07;;;;;;;9.70;3.15;;;3.60;89.90;;;;;;4961782;28;20302;-46
2023/12/04 04:40:36;;;;;;;4.50;2.78;;;3.60;88.60;;;;;;4962775;28;20235;-48
2023/12/04 04:43:04;;;;;;;4.60;2.63;;;3.60;89.20;;;;;;4960492;28;20187;-47
2023/12/04 04:45:32;;;;;;;3.03;2.35;;;3.60;88.90;;;;;;4968898;28;20219;-47
2023/12/04 04:48:00;;;;;;;2.63;2.20;;;3.60;89.60;;;;;;4959511;28;20243;-47
2023/12/04 04:50:28;;;;;;;4.25;2.40;;;3.60;89.80;;;;;;4963759;28;20601;-48
2023/12/04 04:52:57;;;;;;;4.35;2.55;;;3.60;89.30;;;;;;4970212;28;20539;-45
2023/12/04 04:55:25;;;;;;;3.60;2.75;;;3.60;88.50;;;;;;4964419;28;20212;-46
2023/12/04 04:58:14;;;;;;;4.00;3.05;;;3.60;88.90;;;;;;4969147;28;20799;-47
2023/12/04 05:00:42;;;;;;;4.70;2.28;;;3.60;89.20;;;;;;4968872;28;20637;-48
2023/12/04 05:03:12;;;;;;;3.38;2.92;;;3.60;88.90;;;;;;4961119;28;20227;-47
2023/12/04 05:05:40;;;;;;;3.55;2.65;;;3.60;87.80;;;;;;4963147;28;20223;-45
2023/12/04 05:08:08;;;;;;;3.50;2.60;;;3.60;87.80;;;;;;4969644;28;20225;-48
2023/12/04 05:10:38;;;;;;;4.75;2.78;;;3.60;87.70;;;;;;4958560;28;20210;-47
2023/12/04 05:13:06;;;;;;;3.50;2.70;;;3.60;88.40;;;;;;4959238;28;20713;-49
2023/12/04 05:15:36;;;;;;;4.90;3.20;;;3.60;88.50;;;;;;4966399;28;20219;-45
2023/12/04 05:18:04;;;;;;;4.50;2.75;;;3.60;87.80;;;;;;4972243;28;20219;-46
2023/12/04 05:20:32;;;;;;;4.40;2.78;;;3.60;87.20;;;;;;4964381;28;20624;-46
2023/12/04 05:23:00;;;;;;;3.67;2.70;;;3.60;87.40;;;;;;4967568;28;20231;-47
2023/12/04 05:25:28;;;;;;;2.78;2.50;;;3.60;88.00;;;;;;4965581;28;20800;-46
2023/12/04 05:28:05;;;;;;;4.05;3.17;;;3.60;88.20;;;;;;4965182;28;20302;-46
2023/12/04 05:30:34;;;;;;;3.38;2.65;;;3.60;88.20;;;;;;4969887;28;20222;-46
2023/12/04 05:33:02;;;;;;;3.75;2.67;;;3.60;88.60;;;;;;4960200;28;20214;-45
2023/12/04 05:35:33;;;;;;;4.05;2.20;;;3.60;88.60;;;;;;4968091;28;20327;-45
2023/12/04 05:38:01;;;;;;;4.15;2.80;;;3.60;88.60;;;;;;4968435;28;20262;-45
2023/12/04 05:40:29;;;;;;;3.22;2.85;;;3.60;87.90;;;;;;4961833;28;20223;-48
2023/12/04 05:42:59;;;;;;;4.30;2.90;;;3.60;88.00;;;;;;4964632;28;20191;-46
2023/12/04 05:45:28;;;;;;;4.05;2.97;;;3.60;88.50;;;;;;4970552;28;20226;-46
2023/12/04 05:48:00;;;;;;;4.60;2.92;;;3.60;88.80;;;;;;4964275;28;20208;-45
2023/12/04 05:50:31;;;;;;;4.03;2.05;;;3.60;88.90;;;;;;4964184;28;20229;-45
2023/12/04 05:52:59;;;;;;;5.68;3.03;;;3.60;88.70;;;;;;4963098;28;20274;-48
2023/12/04 05:55:27;;;;;;;3.67;2.45;;;3.60;88.40;;;;;;4972965;28;20246;-47
2023/12/04 05:57:55;;;;;;;3.55;2.15;;;3.60;88.10;;;;;;4967783;28;20212;-46
2023/12/04 06:00:23;;;;;;;3.10;2.38;;;3.60;88.00;;;;;;4970736;28;20226;-49
2023/12/04 06:02:56;;;;;;;5.43;2.20;;;3.60;87.90;;;;;;4971919;28;20203;-46
2023/12/04 06:05:25;;;;;;;3.15;2.55;;;3.60;88.30;;;;;;4964201;28;20701;-45
2023/12/04 06:07:53;;;;;;;3.22;2.10;;;3.60;88.10;;;;;;4965657;28;20595;-47
2023/12/04 06:10:21;;;;;;;3.55;2.50;;;3.60;87.40;;;;;;4967591;28;20258;-47
2023/12/04 06:12:49;;;;;;;3.17;2.42;;;3.60;88.00;;;;;;4970224;28;20204;-47
2023/12/04 06:15:18;;;;;;;4.25;2.92;;;3.60;87.20;;;;;;4978062;28;20219;-47
2023/12/04 06:17:46;;;;;;;3.42;2.97;;;3.60;87.70;;;;;;4972679;28;20306;-46
2023/12/04 06:20:14;;;;;;;3.70;2.30;;;3.60;88.10;;;;;;4969736;28;20628;-46
2023/12/04 06:22:44;;;;;;;4.18;2.33;;;3.60;88.30;;;;;;4972000;28;20229;-47
2023/12/04 06:25:13;;;;;;;3.92;3.03;;;3.60;88.50;;;;;;4972108;28;20219;-47
2023/12/04 06:27:42;;;;;;;3.70;3.10;;;3.60;88.00;;;;;;4967241;28;20311;-45
2023/12/04 06:30:11;;;;;;;3.90;2.80;;;3.60;88.30;;;;;;4972518;28;20242;-47
2023/12/04 06:32:39;;;;;;;3.83;2.83;;;3.60;88.20;;;;;;4968298;28;20226;-44
2023/12/04 06:35:09;;;;;;;4.78;3.35;;;3.60;88.10;;;;;;4967291;28;20219;-45
2023/12/04 06:37:40;;;;;;;5.68;3.83;;;3.60;88.10;;;;;;4970329;28;20227;-43
2023/12/04 06:40:11;;;;;;;5.22;3.20;;;3.60;87.90;;;;;;4971657;28;20310;-44
2023/12/04 06:42:40;;;;;;;2.92;2.63;;;3.60;87.70;;;;;;4968460;28;20210;-44
2023/12/04 06:45:09;;;;;;;4.90;3.53;;;3.60;88.50;;;;;;4971851;28;20225;-46
2023/12/04 06:47:41;;;;;;;3.95;2.97;;;3.50;87.90;;;;;;4970614;28;20231;-44
2023/12/04 06:50:09;;;;;;;5.55;4.38;;;3.50;88.00;;;;;;4969580;28;20229;-45
2023/12/04 06:52:37;;;;;;;5.65;3.80;;;3.50;88.00;;;;;;4969257;28;20231;-44
2023/12/04 06:55:06;;;;;;;4.75;3.50;;;3.50;88.40;;;;;;4971627;28;20211;-44
2023/12/04 06:57:35;;;;;;;4.32;3.70;;;3.60;89.90;;;;;;4969964;28;20314;-45
2023/12/04 07:00:05;;;;;;;5.10;3.20;;;3.50;88.40;;;;;;4970318;28;20223;-46
2023/12/04 07:02:49;;;;;;;9.07;6.72;;;3.60;88.90;;;;;;4971062;28;20250;-46
2023/12/04 07:05:18;;;;;;;17.15;8.90;;;3.50;85.70;;;;;;4967544;28;20208;-45
2023/12/04 07:07:46;;;;;;;8.95;7.53;;;3.40;83.10;;;;;;4971717;28;20286;-44
2023/12/04 07:10:14;;;;;;;13.35;8.93;;;3.40;83.50;;;;;;4970932;28;20238;-45
2023/12/04 07:12:46;;;;;;;11.48;8.52;;;3.30;84.10;;;;;;4963162;28;20461;-48
2023/12/04 07:15:14;;;;;;;10.95;8.45;;;3.30;83.70;;;;;;4970464;28;20227;-45
2023/12/04 07:17:42;;;;;;;11.70;8.80;;;3.30;85.00;;;;;;4970235;28;20223;-45
2023/12/04 07:20:12;;;;;;;10.13;8.50;;;3.30;86.00;;;;;;4968815;28;20215;-49
2023/12/04 07:22:40;;;;;;;8.80;7.10;;;3.30;86.20;;;;;;4967392;28;20223;-45
2023/12/04 07:25:09;;;;;;;10.10;7.43;;;3.30;86.30;;;;;;4966298;28;20570;-45
2023/12/04 07:27:37;;;;;;;8.52;6.80;;;3.40;86.70;;;;;;4963841;28;20455;-46
2023/12/04 07:30:08;;;;;;;11.15;7.45;;;3.40;86.40;;;;;;4969345;28;20223;-45
2023/12/04 07:32:36;;;;;;;9.60;7.00;;;3.40;86.70;;;;;;4968169;28;20206;-44
2023/12/04 07:35:06;;;;;;;11.52;7.53;;;3.40;87.00;;;;;;4966463;28;20282;-45
2023/12/04 07:37:34;;;;;;;13.70;7.90;;;3.40;87.30;;;;;;4971782;28;20270;-44
2023/12/04 07:40:03;;;;;;;12.10;8.70;;;3.40;86.90;;;;;;4970876;28;20316;-44
2023/12/04 07:42:31;;;;;;;9.90;7.68;;;3.50;86.70;;;;;;4965191;28;20231;-47
2023/12/04 07:45:00;;;;;;;10.13;7.70;;;3.40;86.90;;;;;;4966516;28;20215;-48
2023/12/04 07:47:29;;;;;;;7.43;6.70;;;3.40;87.20;;;;;;4971675;28;20694;-45
2023/12/04 07:49:59;;;;;;;10.80;7.55;;;3.40;87.20;;;;;;4964589;28;20814;-44
2023/12/04 07:52:28;;;;;;;9.85;6.82;;;3.50;87.30;;;;;;4970743;28;20199;-46
2023/12/04 07:54:56;;;;;;;8.55;7.32;;;3.50;87.60;;;;;;4965978;28;20230;-43
2023/12/04 07:57:24;;;;;;;9.85;6.93;;;3.40;87.30;;;;;;4964810;28;20188;-45
2023/12/04 07:59:53;;;;;;;11.68;8.35;;;3.40;87.50;;;;;;4970551;28;20228;-45
2023/12/04 08:02:21;;;;;;;9.05;6.82;;;3.50;87.20;;;;;;4971086;28;20650;-46
2023/12/04 08:04:50;;;;;;;10.43;6.35;;;3.50;87.20;;;;;;4962073;28;20318;-45
2023/12/04 08:07:18;;;;;;;10.55;6.68;;;3.50;87.50;;;;;;4971365;28;20255;-45
2023/12/04 08:09:46;;;;;;;10.07;7.10;;;3.50;87.40;;;;;;4970614;28;20223;-44
2023/12/04 08:12:14;;;;;;;9.23;6.50;;;3.50;87.10;;;;;;4964169;28;20219;-44
2023/12/04 08:14:43;;;;;;;9.02;7.95;;;3.50;87.30;;;;;;4969289;28;20211;-45
2023/12/04 08:17:11;;;;;;;11.27;7.45;;;3.50;85.90;;;;;;4968414;28;20550;-44
2023/12/04 08:19:39;;;;;;;11.25;7.75;;;3.50;84.80;;;;;;4966702;28;20218;-44
2023/12/04 08:22:09;;;;;;;10.20;7.60;;;3.50;85.40;;;;;;4967977;28;20196;-44
2023/12/04 08:24:37;;;;;;;10.05;7.20;;;3.50;85.90;;;;;;4967304;28;20693;-45
2023/12/04 08:27:05;;;;;;;9.52;7.15;;;3.50;85.90;;;;;;4963441;28;20581;-45
2023/12/04 08:29:34;;;;;;;10.57;7.38;;;3.50;86.20;;;;;;4968712;28;20254;-44
2023/12/04 08:32:02;;;;;;;9.25;6.97;;;3.50;86.10;;;;;;4965490;28;20641;-45
2023/12/04 08:34:31;;;;;;;8.20;6.45;;;3.40;86.50;;;;;;4963710;28;20212;-47
2023/12/04 08:36:59;;;;;;;8.82;6.35;;;3.50;86.10;;;;;;4962308;28;20194;-47
2023/12/04 08:39:29;;;;;;;10.48;6.95;;;3.40;86.10;;;;;;4968874;28;20302;-45
2023/12/04 08:41:57;;;;;;;7.82;6.70;;;3.50;86.30;;;;;;4964796;28;20227;-45
2023/12/04 08:44:32;;;;;;;11.18;6.03;;;3.50;86.60;;;;;;4970755;28;20229;-46
2023/12/04 08:47:00;;;;;;;6.75;5.57;;;3.50;86.60;;;;;;4970659;28;20211;-43
2023/12/04 08:49:28;;;;;;;9.02;6.90;;;3.50;86.40;;;;;;4970375;28;20234;-47
2023/12/04 08:52:09;;;;;;;7.38;5.60;;;3.50;86.50;;;;;;4967109;28;20187;-44
2023/12/04 08:54:41;;;;;;;7.20;5.55;;;3.50;86.80;;;;;;4967543;28;20227;-44
2023/12/04 08:57:10;;;;;;;8.77;6.10;;;3.50;87.00;;;;;;4965536;28;20610;-44
2023/12/04 08:59:38;;;;;;;7.35;5.63;;;3.50;87.00;;;;;;4967502;28;20227;-44
2023/12/04 09:02:06;;;;;;;6.80;6.00;;;3.50;87.10;;;;;;4970069;28;20222;-45
2023/12/04 09:04:36;;;;;;;7.65;5.97;;;3.50;87.30;;;;;;4964965;28;20229;-44
2023/12/04 09:07:07;;;;;;;9.00;6.25;;;3.50;87.30;;;;;;4970710;28;20242;-44
2023/12/04 09:09:38;;;;;;;7.30;5.80;;;3.50;86.60;;;;;;4966695;28;20230;-44
2023/12/04 09:12:08;;;;;;;6.75;5.75;;;3.50;86.90;;;;;;4963879;28;20187;-43
2023/12/04 09:14:37;;;;;;;7.18;5.35;;;3.50;87.10;;;;;;4966559;28;20298;-46
2023/12/04 09:17:08;;;;;;;8.25;6.15;;;3.50;87.20;;;;;;4969863;28;20207;-45
2023/12/04 09:19:37;;;;;;;9.75;6.35;;;3.50;86.90;;;;;;4964868;28;20262;-44
2023/12/04 09:22:05;;;;;;;8.23;4.78;;;3.50;86.90;;;;;;4966336;28;20274;-45
2023/12/04 09:24:45;;;;;;;8.60;6.53;;;3.50;87.10;;;;;;4967185;28;20297;-44
2023/12/04 09:27:15;;;;;;;7.47;5.18;;;3.60;87.30;;;;;;4966964;28;20218;-45
2023/12/04 09:29:43;;;;;;;9.77;6.88;;;3.50;87.00;;;;;;4968854;28;20223;-45
2023/12/04 09:32:11;;;;;;;6.60;5.20;;;3.60;87.20;;;;;;4969906;28;20199;-46
2023/12/04 09:34:39;;;;;;;7.45;4.80;;;3.50;87.40;;;;;;4964153;28;20227;-46
2023/12/04 09:37:08;;;;;;;8.60;5.75;;;3.60;87.60;;;;;;4969300;28;20195;-46
2023/12/04 09:39:40;;;;;;;8.15;5.07;;;3.50;87.40;;;;;;4965236;28;20270;-47
2023/12/04 09:42:09;;;;;;;5.35;4.30;;;3.50;87.30;;;;;;4969524;28;20187;-44
2023/12/04 09:44:40;;;;;;;7.47;6.18;;;3.50;87.70;;;;;;4981967;28;20964;-45
2023/12/04 09:47:10;;;;;;;6.57;5.05;;;3.60;87.60;;;;;;4970309;28;20227;-45
2023/12/04 09:49:40;;;;;;;8.15;6.00;;;3.60;87.70;;;;;;4966982;28;20230;-44
2023/12/04 09:52:08;;;;;;;6.70;5.38;;;3.60;87.50;;;;;;4967111;28;20195;-45
2023/12/04 09:54:38;;;;;;;6.82;5.13;;;3.60;87.20;;;;;;4969266;28;20302;-45
2023/12/04 09:57:06;;;;;;;6.60;5.35;;;3.50;87.10;;;;;;4967358;28;20196;-44
2023/12/04 09:59:35;;;;;;;7.68;6.10;;;3.50;87.70;;;;;;4973158;28;20266;-48
2023/12/04 10:02:06;;;;;;;6.45;4.72;;;3.60;87.60;;;;;;4973901;28;20195;-48
2023/12/04 10:04:34;;;;;;;5.82;4.55;;;3.50;87.10;;;;;;4973364;28;20219;-50
2023/12/04 10:07:03;;;;;;;5.40;4.80;;;3.60;87.50;;;;;;4969518;28;20187;-47
2023/12/04 10:09:31;;;;;;;5.32;4.13;;;3.50;87.50;;;;;;4973308;28;20215;-44
2023/12/04 10:12:00;;;;;;;5.40;4.00;;;3.60;87.50;;;;;;4969409;28;20250;-45
2023/12/04 10:14:28;;;;;;;6.13;4.63;;;3.60;87.50;;;;;;4972554;28;20277;-46
2023/12/04 10:16:56;;;;;;;5.40;4.68;;;3.60;87.70;;;;;;4968691;28;20208;-45
2023/12/04 10:19:29;;;;;;;5.43;4.43;;;3.60;87.60;;;;;;4972134;28;20306;-46
2023/12/04 10:21:59;;;;;;;5.75;4.63;;;3.60;87.60;;;;;;4969557;28;20286;-45
2023/12/04 10:24:31;;;;;;;6.15;3.53;;;3.60;87.80;;;;;;4971902;28;20239;-46
2023/12/04 10:26:59;;;;;;;6.72;4.13;;;3.60;87.70;;;;;;4967464;28;20199;-46
2023/12/04 10:29:30;;;;;;;5.65;4.25;;;3.60;87.90;;;;;;4972347;28;20628;-45
2023/12/04 10:32:02;;;;;;;5.13;4.13;;;3.60;88.10;;;;;;4968630;28;20204;-45
2023/12/04 10:34:33;;;;;;;4.93;3.80;;;3.60;88.10;;;;;;4961176;28;20220;-46
2023/12/04 10:37:04;;;;;;;5.97;4.13;;;3.60;88.40;;;;;;4968949;28;20192;-45
2023/12/04 10:39:34;;;;;;;5.07;4.30;;;3.60;88.50;;;;;;4987505;28;20293;-45
2023/12/04 10:42:04;;;;;;;5.03;3.97;;;3.60;88.60;;;;;;4966252;28;20218;-45
2023/12/04 10:44:33;;;;;;;4.32;3.67;;;3.60;88.70;;;;;;4962641;28;20318;-47
2023/12/04 10:47:02;;;;;;;7.00;5.15;;;3.60;88.90;;;;;;4974124;28;20203;-44
2023/12/04 10:49:31;;;;;;;4.95;3.40;;;3.60;89.00;;;;;;4972451;28;20247;-44
2023/12/04 10:52:01;;;;;;;6.53;4.45;;;3.60;89.20;;;;;;4965062;28;20619;-45
2023/12/04 10:54:29;;;;;;;4.10;3.03;;;3.60;89.40;;;;;;4971935;28;20254;-46
2023/12/04 10:57:03;;;;;;;8.63;4.50;;;3.60;89.50;;;;;;4962570;28;20187;-45
2023/12/04 10:59:39;;;;;;;4.55;3.70;;;3.60;89.70;;;;;;4968432;28;20948;-44
2023/12/04 11:02:09;;;;;;;5.47;3.65;;;3.60;90.00;;;;;;4973873;28;20200;-44
2023/12/04 11:04:39;;;;;;;4.45;3.58;;;3.60;90.20;;;;;;4965395;28;20219;-46
2023/12/04 11:07:10;;;;;;;4.18;3.35;;;3.60;90.00;;;;;;4966330;28;20729;-45
2023/12/04 11:09:39;;;;;;;4.70;3.35;;;3.60;90.00;;;;;;4967799;28;20258;-44
2023/12/04 11:12:12;;;;;;;6.07;4.28;;;3.60;90.10;;;;;;4967151;28;20203;-46
2023/12/04 11:14:45;;;;;;;4.78;3.72;;;3.60;90.10;;;;;;4964283;28;20224;-45
2023/12/04 11:17:15;;;;;;;4.50;3.70;;;3.60;90.10;;;;;;4972035;28;20195;-47
2023/12/04 11:19:54;;;;;;;4.75;3.58;;;3.60;90.10;;;;;;4971583;28;20561;-46
2023/12/04 11:22:23;;;;;;;4.85;3.60;;;3.60;90.20;;;;;;4965274;28;20609;-44
2023/12/04 11:24:52;;;;;;;4.55;3.95;;;3.60;90.20;;;;;;4965050;28;20238;-48
2023/12/04 11:27:21;;;;;;;5.68;3.65;;;3.60;90.20;;;;;;4969978;28;20709;-45
2023/12/04 11:29:50;;;;;;;4.93;3.38;;;3.60;90.30;;;;;;4970885;28;20226;-45
2023/12/04 11:32:20;;;;;;;4.75;3.38;;;3.60;90.30;;;;;;4969623;28;20298;-44
2023/12/04 11:34:51;;;;;;;4.05;2.97;;;3.60;90.30;;;;;;4958627;28;20536;-45
2023/12/04 11:37:21;;;;;;;4.95;3.53;;;3.60;90.30;;;;;;4969709;28;20666;-45
2023/12/04 11:39:50;;;;;;;3.40;2.60;;;3.60;90.30;;;;;;4970433;28;20294;-47
2023/12/04 11:42:23;;;;;;;4.32;3.45;;;3.60;90.30;;;;;;4969559;28;20576;-44
2023/12/04 11:44:58;;;;;;;4.95;3.45;;;3.60;90.40;;;;;;4971151;28;20769;-45
2023/12/04 11:47:29;;;;;;;4.97;3.03;;;3.60;90.40;;;;;;4970043;28;20675;-45
2023/12/04 11:50:00;;;;;;;4.00;3.00;;;3.70;90.40;;;;;;4959648;28;20228;-44
2023/12/04 11:52:34;;;;;;;4.40;3.40;;;3.60;90.40;;;;;;4971324;28;20238;-46
2023/12/04 11:55:05;;;;;;;3.80;2.42;;;3.70;90.40;;;;;;4969216;28;20236;-44
2023/12/04 11:57:35;;;;;;;3.55;2.47;;;3.60;90.40;;;;;;4967721;28;20219;-46
2023/12/04 12:00:11;;;;;;;3.47;3.13;;;3.70;90.40;;;;;;4969604;28;20645;-49
2023/12/04 12:02:40;;;;;;;5.05;3.20;;;3.70;90.40;;;;;;4967437;28;20282;-45
2023/12/04 12:05:32;;;;;;;3.80;2.85;;;3.70;91.00;;;;;;4968120;28;20249;-45
2023/12/04 12:08:02;;;;;;;6.35;3.80;;;3.70;90.30;;;;;;4968258;28;20220;-44
2023/12/04 12:10:31;;;;;;;4.75;3.42;;;3.70;90.30;;;;;;4965956;28;20216;-47
2023/12/04 12:12:59;;;;;;;4.78;4.13;;;3.70;90.30;;;;;;4960711;28;20274;-44
2023/12/04 12:15:27;;;;;;;5.13;3.65;;;3.70;90.20;;;;;;4970286;28;20229;-43
2023/12/04 12:17:55;;;;;;;3.40;3.10;;;3.70;90.20;;;;;;4963859;28;20306;-44
2023/12/04 12:20:23;;;;;;;3.63;2.47;;;3.70;90.20;;;;;;4965153;28;20223;-48
2023/12/04 12:22:54;;;;;;;4.03;3.33;;;3.70;90.20;;;;;;4970234;28;20200;-47
2023/12/04 12:25:22;;;;;;;3.70;3.22;;;3.70;90.10;;;;;;4970415;28;20222;-47
2023/12/04 12:27:51;;;;;;;3.78;3.00;;;3.70;90.20;;;;;;4962412;28;20274;-46
2023/12/04 12:30:19;;;;;;;3.30;2.63;;;3.70;90.10;;;;;;4965486;28;20223;-47
2023/12/04 12:32:48;;;;;;;4.47;3.40;;;3.70;90.20;;;;;;4969126;28;20700;-44
2023/12/04 12:35:15;;;;;;;4.43;3.35;;;3.70;90.20;;;;;;4966325;28;20223;-44
2023/12/04 12:37:44;;;;;;;5.20;3.58;;;3.70;90.20;;;;;;4965127;28;20315;-46
2023/12/04 12:40:13;;;;;;;5.13;3.63;;;3.70;90.20;;;;;;4967397;28;20211;-46
2023/12/04 12:42:43;;;;;;;5.10;3.55;;;3.70;90.20;;;;;;4966651;28;20191;-45
2023/12/04 12:45:12;;;;;;;7.10;4.80;;;3.70;90.20;;;;;;4964755;28;20219;-45
2023/12/04 12:47:43;;;;;;;6.57;3.75;;;3.70;90.20;;;;;;4965379;28;20234;-46
2023/12/04 12:50:13;;;;;;;5.57;4.55;;;3.70;90.20;;;;;;4973840;28;20224;-45
2023/12/04 12:52:44;;;;;;;5.80;3.80;;;3.70;90.30;;;;;;4966617;28;20200;-46
2023/12/04 12:55:23;;;;;;;4.60;3.90;;;3.70;90.20;;;;;;4980604;28;20702;-47
2023/12/04 12:57:52;;;;;;;5.03;3.92;;;3.70;90.20;;;;;;4958064;28;20223;-48
2023/12/04 13:00:22;;;;;;;7.43;4.47;;;3.70;90.30;;;;;;4965589;28;20235;-46
2023/12/04 13:02:54;;;;;;;7.03;5.68;;;3.70;90.30;;;;;;4964966;28;20298;-45
2023/12/04 13:05:22;;;;;;;5.88;4.20;;;3.70;90.40;;;;;;4966555;28;20582;-44